Time;durP1;ratioP1;P1;durP2;ratioP2;P2;SDS_P1;SDS_P2;PMS_P1;PMS_P2;Temp;Humidity;BMP_temperature;BMP_pressure;BME280_temperature;BME280_humidity;BME280_pressure;Samples;Min_cycle;Max_cycle;Signal;HPM_P1;HPM_P2
2023/10/06 00:01:42;;;;;;;;;;;11.70;99.90;;;;;;5077782;28;19936;-64
2023/10/06 00:04:09;;;;;;;;;;;11.70;99.90;;;;;;5077614;28;19912;-64
2023/10/06 00:06:37;;;;;;;;;;;11.90;99.90;;;;;;5077584;28;19916;-64
2023/10/06 00:09:06;;;;;;;;;;;11.80;99.90;;;;;;5077439;28;19909;-64
2023/10/06 00:11:32;;;;;;;;;;;11.70;99.90;;;;;;5077369;28;19934;-64
2023/10/06 00:14:07;;;;;;;;;;;11.80;99.90;;;;;;5077323;28;19915;-64
2023/10/06 00:16:39;;;;;;;;;;;11.70;99.90;;;;;;5077342;28;19908;-64
2023/10/06 00:19:20;;;;;;;;;;;11.70;99.90;;;;;;5077271;28;20341;-64
2023/10/06 00:21:47;;;;;;;;;;;11.80;99.90;;;;;;5077295;28;20332;-64
2023/10/06 00:24:13;;;;;;;;;;;11.80;99.90;;;;;;5077110;28;19955;-64
2023/10/06 00:26:42;;;;;;;;;;;11.90;99.90;;;;;;5077252;28;19908;-64
2023/10/06 00:29:18;;;;;;;;;;;11.90;99.90;;;;;;5077079;28;20007;-64
2023/10/06 00:31:48;;;;;;;;;;;11.90;99.90;;;;;;5058884;28;19918;-64
2023/10/06 00:34:25;;;;;;;;;;;11.90;99.90;;;;;;5075138;28;19995;-64
2023/10/06 00:36:56;;;;;;;;;;;11.70;99.90;;;;;;5077158;28;19962;-64
2023/10/06 00:39:29;;;;;;;;;;;11.70;99.90;;;;;;5075345;28;19917;-64
2023/10/06 00:42:02;;;;;;;;;;;11.70;99.90;;;;;;5077081;28;19948;-64
2023/10/06 00:44:29;;;;;;;;;;;11.70;99.90;;;;;;5076679;28;20273;-64
2023/10/06 00:46:58;;;;;;;;;;;11.60;99.90;;;;;;5076766;28;19934;-64
2023/10/06 00:49:28;;;;;;;;;;;11.70;99.90;;;;;;5076755;28;20286;-64
2023/10/06 00:51:55;;;;;;;;;;;11.70;99.90;;;;;;5076680;28;19908;-64
2023/10/06 00:54:24;;;;;;;;;;;11.60;99.90;;;;;;5076557;28;19915;-64
2023/10/06 00:56:52;;;;;;;;;;;11.70;99.90;;;;;;5058338;28;19991;-64
2023/10/06 00:59:18;;;;;;;;;;;11.80;99.90;;;;;;5064820;28;19912;-64
2023/10/06 01:01:44;;;;;;;;;;;11.80;99.90;;;;;;5056509;28;19915;-64
2023/10/06 01:04:16;;;;;;;;;;;11.70;99.90;;;;;;5056474;28;20362;-64
2023/10/06 01:06:42;;;;;;;;;;;11.60;99.90;;;;;;5056286;28;19915;-64
2023/10/06 01:09:16;;;;;;;;;;;11.60;99.90;;;;;;5056190;28;19916;-64
2023/10/06 01:11:46;;;;;;;;;;;11.60;99.90;;;;;;5056410;28;20388;-64
2023/10/06 01:14:21;;;;;;;;;;;11.60;99.90;;;;;;5056194;28;19909;-64
2023/10/06 01:16:49;;;;;;;;;;;11.60;99.90;;;;;;5056286;28;19908;-64
2023/10/06 01:19:25;;;;;;;;;;;11.70;99.90;;;;;;5056128;28;19908;-64
2023/10/06 01:21:55;;;;;;;;;;;11.70;99.90;;;;;;5056171;28;19955;-64
2023/10/06 01:24:25;;;;;;;;;;;11.70;99.90;;;;;;5055916;28;19989;-64
2023/10/06 01:27:05;;;;;;;;;;;11.80;99.90;;;;;;5056148;28;19909;-64
2023/10/06 01:29:31;;;;;;;;;;;11.80;99.90;;;;;;5055969;28;19920;-64
2023/10/06 01:31:58;;;;;;;;;;;11.90;99.90;;;;;;5056085;28;19908;-64
2023/10/06 01:34:27;;;;;;;;;;;11.90;99.90;;;;;;5038020;28;19908;-64
2023/10/06 01:36:53;;;;;;;;;;;11.90;99.90;;;;;;5055899;28;20003;-64
2023/10/06 01:39:22;;;;;;;;;;;11.80;99.90;;;;;;5055761;28;19919;-64
2023/10/06 01:41:48;;;;;;;;;;;11.80;99.90;;;;;;5055890;28;19951;-64
2023/10/06 01:44:15;;;;;;;;;;;11.90;99.90;;;;;;5055612;28;19908;-64
2023/10/06 01:46:43;;;;;;;;;;;11.90;99.90;;;;;;5055778;28;19912;-64
2023/10/06 01:49:14;;;;;;;;;;;11.90;99.90;;;;;;5056109;28;19912;-64
2023/10/06 01:51:40;;;;;;;;;;;11.90;99.90;;;;;;5038034;28;19908;-64
2023/10/06 01:54:07;;;;;;;;;;;12.00;99.90;;;;;;5055447;28;19940;-64
2023/10/06 01:56:36;;;;;;;;;;;12.00;99.90;;;;;;5055737;28;20397;-64
2023/10/06 01:59:05;;;;;;;;;;;12.10;99.90;;;;;;5046948;28;19927;-64
2023/10/06 02:01:31;;;;;;;;;;;12.20;99.90;;;;;;5074468;28;19908;-64
2023/10/06 02:03:57;;;;;;;;;;;12.10;99.90;;;;;;5075742;28;19908;-63
2023/10/06 02:06:25;;;;;;;;;;;12.00;99.90;;;;;;5074076;28;19915;-63
2023/10/06 02:08:52;;;;;;;;;;;12.00;99.90;;;;;;5075610;28;19913;-64
2023/10/06 02:11:21;;;;;;;;;;;12.00;99.90;;;;;;5074425;28;20313;-64
2023/10/06 02:13:47;;;;;;;;;;;11.90;99.90;;;;;;5074086;28;19958;-64
2023/10/06 02:16:13;;;;;;;;;;;11.90;99.90;;;;;;5075745;28;19909;-64
2023/10/06 02:18:40;;;;;;;;;;;11.90;99.90;;;;;;5075582;28;20018;-64
2023/10/06 02:21:25;;;;;;;;;;;11.80;99.90;;;;;;5074429;28;19992;-64
2023/10/06 02:23:51;;;;;;;;;;;11.90;99.90;;;;;;5075377;28;20321;-64
2023/10/06 02:26:17;;;;;;;;;;;11.90;99.90;;;;;;5057608;28;19909;-64
2023/10/06 02:28:48;;;;;;;;;;;11.80;99.90;;;;;;5075436;28;19961;-64
2023/10/06 02:31:14;;;;;;;;;;;11.90;99.90;;;;;;5057584;28;19912;-64
2023/10/06 02:33:41;;;;;;;;;;;11.90;99.90;;;;;;5074156;28;20357;-64
2023/10/06 02:36:17;;;;;;;;;;;11.90;99.90;;;;;;5075426;28;20301;-64
2023/10/06 02:39:05;;;;;;;;;;;11.90;99.90;;;;;;5057190;28;19989;-64
2023/10/06 02:41:32;;;;;;;;;;;11.80;99.90;;;;;;5075446;28;19962;-64
2023/10/06 02:44:08;;;;;;;;;;;11.90;99.90;;;;;;5075192;28;19908;-64
2023/10/06 02:46:36;;;;;;;;;;;11.80;99.90;;;;;;5075562;28;19909;-64
2023/10/06 02:49:07;;;;;;;;;;;11.80;99.90;;;;;;5075382;28;19943;-64
2023/10/06 02:51:33;;;;;;;;;;;11.80;99.90;;;;;;5075311;28;19958;-64
2023/10/06 02:54:21;;;;;;;;;;;11.90;99.90;;;;;;5075291;28;19909;-64
2023/10/06 02:56:46;;;;;;;;;;;12.00;99.90;;;;;;5077078;28;19935;-64
2023/10/06 02:59:23;;;;;;;;;;;11.90;99.90;;;;;;5067924;28;19913;-64
2023/10/06 03:01:52;;;;;;;;;;;11.90;99.90;;;;;;5058820;28;19944;-64
2023/10/06 03:04:21;;;;;;;;;;;11.90;99.90;;;;;;5058713;28;20231;-64
2023/10/06 03:06:53;;;;;;;;;;;11.90;99.90;;;;;;5040632;28;19909;-64
2023/10/06 03:09:20;;;;;;;;;;;11.90;99.90;;;;;;5040812;28;19909;-64
2023/10/06 03:11:50;;;;;;;;;;;11.90;99.90;;;;;;5058816;28;19909;-64
2023/10/06 03:14:24;;;;;;;;;;;12.00;99.90;;;;;;5040572;28;19916;-64
2023/10/06 03:16:51;;;;;;;;;;;12.00;99.90;;;;;;5058594;28;19908;-64
2023/10/06 03:19:24;;;;;;;;;;;12.00;99.90;;;;;;5058527;28;20338;-64
2023/10/06 03:21:56;;;;;;;;;;;12.00;99.90;;;;;;5040456;28;19921;-64
2023/10/06 03:24:31;;;;;;;;;;;12.00;99.90;;;;;;5058159;28;19912;-64
2023/10/06 03:26:58;;;;;;;;;;;12.00;99.90;;;;;;5040458;28;19908;-64
2023/10/06 03:29:46;;;;;;;;;;;12.20;99.90;;;;;;5058219;28;19999;-64
2023/10/06 03:32:19;;;;;;;;;;;12.10;99.90;;;;;;5058263;28;20357;-64
2023/10/06 03:34:47;;;;;;;;;;;11.90;99.90;;;;;;5058254;28;20290;-64
2023/10/06 03:37:16;;;;;;;;;;;11.80;99.90;;;;;;5056608;28;19954;-64
2023/10/06 03:39:50;;;;;;;;;;;11.80;99.90;;;;;;5040219;28;20015;-64
2023/10/06 03:42:20;;;;;;;;;;;11.70;99.90;;;;;;5040246;28;19909;-64
2023/10/06 03:44:52;;;;;;;;;;;11.70;99.90;;;;;;5039750;28;20309;-64
2023/10/06 03:47:18;;;;;;;;;;;11.80;99.90;;;;;;5058014;28;19963;-64
2023/10/06 03:49:47;;;;;;;;;;;11.80;99.90;;;;;;5039956;28;19909;-64
2023/10/06 03:52:13;;;;;;;;;;;11.90;99.90;;;;;;5058198;28;19916;-64
2023/10/06 03:54:39;;;;;;;;;;;12.10;99.90;;;;;;5057820;28;19909;-64
2023/10/06 03:57:05;;;;;;;;;;;12.10;99.90;;;;;;5039811;28;19958;-64
2023/10/06 03:59:32;;;;;;;;;;;11.90;99.90;;;;;;5070926;28;20324;-64
2023/10/06 04:01:58;;;;;;;;;;;11.70;99.90;;;;;;5077713;28;19908;-64
2023/10/06 04:04:24;;;;;;;;;;;11.70;99.90;;;;;;5077512;28;19915;-64
2023/10/06 04:06:50;;;;;;;;;;;11.60;99.90;;;;;;5076765;28;19908;-64
2023/10/06 04:09:27;;;;;;;;;;;11.50;99.90;;;;;;5076797;28;19908;-64
2023/10/06 04:11:54;;;;;;;;;;;11.60;99.90;;;;;;5077371;28;20380;-64
2023/10/06 04:14:20;;;;;;;;;;;11.70;99.90;;;;;;5077278;28;19995;-64
2023/10/06 04:16:46;;;;;;;;;;;11.70;99.90;;;;;;5077326;28;20392;-64
2023/10/06 04:19:15;;;;;;;;;;;11.60;99.90;;;;;;5077340;28;19912;-64
2023/10/06 04:21:42;;;;;;;;;;;11.60;99.90;;;;;;5077261;28;20515;-65
2023/10/06 04:24:08;;;;;;;;;;;11.60;99.90;;;;;;5077146;28;19938;-64
2023/10/06 04:26:34;;;;;;;;;;;11.60;99.90;;;;;;5077245;28;19963;-64
2023/10/06 04:29:01;;;;;;;;;;;11.60;99.90;;;;;;5076970;28;19963;-64
2023/10/06 04:31:26;;;;;;;;;;;11.60;99.90;;;;;;5076891;28;19905;-64
2023/10/06 04:33:53;;;;;;;;;;;11.60;99.90;;;;;;5076904;28;19908;-64
2023/10/06 04:36:24;;;;;;;;;;;11.50;99.90;;;;;;5077318;28;19908;-64
2023/10/06 04:38:50;;;;;;;;;;;11.50;99.90;;;;;;5075563;28;19957;-64
2023/10/06 04:41:20;;;;;;;;;;;11.50;99.90;;;;;;5076943;28;19908;-64
2023/10/06 04:43:45;;;;;;;;;;;11.60;99.90;;;;;;5076601;28;19914;-64
2023/10/06 04:46:12;;;;;;;;;;;11.80;99.90;;;;;;5076704;28;19991;-64
2023/10/06 04:48:38;;;;;;;;;;;11.70;99.90;;;;;;5076794;28;19908;-64
2023/10/06 04:51:04;;;;;;;;;;;11.80;99.90;;;;;;5076688;28;19910;-64
2023/10/06 04:53:34;;;;;;;;;;;11.80;99.90;;;;;;5076636;28;19908;-64
2023/10/06 04:56:03;;;;;;;;;;;11.80;99.90;;;;;;5076663;28;19915;-64
2023/10/06 04:58:29;;;;;;;;;;;11.80;99.90;;;;;;5071536;28;19959;-65
2023/10/06 05:00:59;;;;;;;;;;;11.90;99.90;;;;;;5056583;28;20255;-64
2023/10/06 05:03:26;;;;;;;;;;;11.80;99.90;;;;;;5056384;28;19915;-64
2023/10/06 05:05:55;;;;;;;;;;;11.90;99.90;;;;;;5056327;28;20504;-64
2023/10/06 05:08:21;;;;;;;;;;;11.80;99.90;;;;;;5056059;28;20351;-64
2023/10/06 05:10:49;;;;;;;;;;;11.80;99.90;;;;;;5056289;28;19908;-64
2023/10/06 05:13:16;;;;;;;;;;;11.90;99.90;;;;;;5038326;28;19909;-65
2023/10/06 05:15:42;;;;;;;;;;;11.90;99.90;;;;;;5056349;28;19916;-65
2023/10/06 05:18:12;;;;;;;;;;;11.80;99.90;;;;;;5056050;28;20019;-64
2023/10/06 05:20:38;;;;;;;;;;;11.90;99.90;;;;;;5055940;28;19923;-64
2023/10/06 05:23:09;;;;;;;;;;;11.90;99.90;;;;;;5056020;28;19909;-65
2023/10/06 05:25:35;;;;;;;;;;;12.00;99.90;;;;;;5054195;28;19909;-65
2023/10/06 05:28:02;;;;;;;;;;;12.10;99.90;;;;;;5055124;28;19905;-65
2023/10/06 05:30:28;;;;;;;;;;;12.10;99.90;;;;;;5055620;28;19916;-64
2023/10/06 05:33:00;;;;;;;;;;;12.10;99.90;;;;;;5054424;28;19931;-64
2023/10/06 05:35:26;;;;;;;;;;;12.00;99.90;;;;;;5056065;28;19919;-65
2023/10/06 05:37:53;;;;;;;;;;;12.10;99.90;;;;;;5056369;28;20376;-64
2023/10/06 05:40:20;;;;;;;;;;;12.00;99.90;;;;;;5056186;28;19948;-65
2023/10/06 05:42:49;;;;;;;;;;;12.10;99.90;;;;;;5055994;28;19995;-64
2023/10/06 05:45:18;;;;;;;;;;;12.10;99.90;;;;;;5056117;28;20425;-64
2023/10/06 05:47:47;;;;;;;;;;;12.20;99.90;;;;;;5055591;28;19915;-64
2023/10/06 05:50:18;;;;;;;;;;;12.30;99.90;;;;;;5055473;28;19909;-64
2023/10/06 05:52:51;;;;;;;;;;;12.30;99.90;;;;;;5056040;28;20004;-64
2023/10/06 05:55:20;;;;;;;;;;;12.40;99.90;;;;;;5056321;28;20350;-64
2023/10/06 05:57:55;;;;;;;;;;;12.40;99.90;;;;;;5056124;28;19915;-64
2023/10/06 06:00:26;;;;;;;;;;;12.30;99.90;;;;;;5036333;28;19917;-64
2023/10/06 06:02:53;;;;;;;;;;;12.50;99.90;;;;;;5035881;28;19913;-64
2023/10/06 06:05:19;;;;;;;;;;;12.50;99.90;;;;;;5036859;28;19948;-64
2023/10/06 06:07:45;;;;;;;;;;;12.60;99.90;;;;;;5044694;28;19913;-64
2023/10/06 06:10:14;;;;;;;;;;;12.70;99.90;;;;;;5035237;28;19958;-65
2023/10/06 06:12:41;;;;;;;;;;;12.90;99.90;;;;;;5037273;28;19948;-65
2023/10/06 06:15:11;;;;;;;;;;;12.90;99.90;;;;;;5050154;28;20278;-65
2023/10/06 06:17:38;;;;;;;;;;;13.00;99.90;;;;;;5053428;28;19916;-65
2023/10/06 06:20:07;;;;;;;;;;;13.00;99.90;;;;;;5049506;28;19912;-66
2023/10/06 06:22:37;;;;;;;;;;;13.00;99.90;;;;;;5044347;28;19986;-65
2023/10/06 06:25:06;;;;;;;;;;;13.10;99.90;;;;;;5043956;28;19916;-65
2023/10/06 06:27:32;;;;;;;;;;;13.10;99.90;;;;;;5043425;28;19912;-65
2023/10/06 06:29:58;;;;;;;;;;;13.30;99.90;;;;;;5055097;28;19923;-65
2023/10/06 06:32:25;;;;;;;;;;;13.60;99.90;;;;;;5058642;28;19913;-65
2023/10/06 06:34:51;;;;;;;;;;;13.70;99.90;;;;;;5047308;28;19909;-65
2023/10/06 06:37:17;;;;;;;;;;;13.80;99.90;;;;;;5047443;28;19909;-65
2023/10/06 06:39:44;;;;;;;;;;;14.00;99.90;;;;;;5057671;28;20262;-65
2023/10/06 06:42:10;;;;;;;;;;;14.10;99.90;;;;;;5057249;28;19916;-65
2023/10/06 06:44:39;;;;;;;;;;;14.10;99.90;;;;;;5052686;28;19909;-65
2023/10/06 06:47:06;;;;;;;;;;;14.10;99.90;;;;;;5039894;28;20273;-65
2023/10/06 06:49:31;;;;;;;;;;;14.20;99.90;;;;;;5048370;28;19967;-65
2023/10/06 06:51:58;;;;;;;;;;;14.30;99.90;;;;;;5045289;28;20382;-65
2023/10/06 06:54:25;;;;;;;;;;;14.40;99.90;;;;;;5052624;28;19909;-65
2023/10/06 06:56:50;;;;;;;;;;;14.50;99.90;;;;;;5038353;28;19909;-65
2023/10/06 06:59:19;;;;;;;;;;;14.50;99.90;;;;;;5059482;28;19920;-65
2023/10/06 07:01:47;;;;;;;;;;;14.40;99.90;;;;;;5055906;28;19908;-65
2023/10/06 07:04:13;;;;;;;;;;;14.40;99.90;;;;;;5057412;28;19908;-65
2023/10/06 07:06:39;;;;;;;;;;;14.50;99.90;;;;;;5052424;28;19915;-65
2023/10/06 07:09:12;;;;;;;;;;;14.60;99.90;;;;;;5058156;28;19966;-65
2023/10/06 07:11:42;;;;;;;;;;;14.50;99.90;;;;;;5058372;28;19963;-65
2023/10/06 07:14:09;;;;;;;;;;;14.60;99.90;;;;;;5045057;28;20290;-65
2023/10/06 07:16:35;;;;;;;;;;;14.70;99.90;;;;;;5058450;28;19905;-65
2023/10/06 07:19:01;;;;;;;;;;;14.60;99.90;;;;;;5057148;28;19997;-65
2023/10/06 07:21:28;;;;;;;;;;;14.70;99.90;;;;;;5057913;28;19908;-65
2023/10/06 07:23:56;;;;;;;;;;;14.80;99.90;;;;;;5056850;28;19909;-65
2023/10/06 07:26:22;;;;;;;;;;;14.90;99.90;;;;;;5057457;28;19912;-55
2023/10/06 07:28:52;;;;;;;;;;;15.00;99.90;;;;;;5050888;28;19909;-55
2023/10/06 07:31:19;;;;;;;;;;;15.10;99.90;;;;;;5038969;28;20394;-55
2023/10/06 07:33:47;;;;;;;;;;;14.90;99.90;;;;;;5048298;28;19944;-55
2023/10/06 07:36:13;;;;;;;;;;;15.20;99.90;;;;;;5038474;28;19909;-55
2023/10/06 07:38:40;;;;;;;;;;;15.30;99.90;;;;;;5040641;28;19908;-55
2023/10/06 07:41:07;;;;;;;;;;;15.40;99.90;;;;;;5057453;28;19955;-55
2023/10/06 07:43:33;;;;;;;;;;;15.30;99.90;;;;;;5053761;28;19909;-55
2023/10/06 07:46:07;;;;;;;;;;;15.40;99.90;;;;;;5057271;28;19913;-55
2023/10/06 07:48:36;;;;;;;;;;;15.40;99.90;;;;;;5047511;28;20317;-55
2023/10/06 07:51:06;;;;;;;;;;;15.70;99.90;;;;;;5052001;28;20285;-55
2023/10/06 07:53:33;;;;;;;;;;;15.80;99.90;;;;;;5057228;28;19913;-55
2023/10/06 07:56:06;;;;;;;;;;;15.80;99.90;;;;;;5054762;28;20273;-55
2023/10/06 07:58:32;;;;;;;;;;;15.70;99.90;;;;;;5055897;28;19912;-55
2023/10/06 08:01:02;;;;;;;;;;;15.70;99.90;;;;;;5044591;28;19909;-55
2023/10/06 08:03:28;;;;;;;;;;;15.80;99.90;;;;;;5047803;28;19909;-55
2023/10/06 08:05:55;;;;;;;;;;;16.10;99.90;;;;;;5044344;28;19916;-55
2023/10/06 08:08:21;;;;;;;;;;;16.30;99.90;;;;;;5046387;28;19924;-55
2023/10/06 08:10:49;;;;;;;;;;;16.20;99.90;;;;;;5040134;28;19909;-55
2023/10/06 08:13:15;;;;;;;;;;;16.40;99.90;;;;;;5045678;28;19916;-55
2023/10/06 08:15:44;;;;;;;;;;;16.30;99.90;;;;;;5041482;28;19916;-55
2023/10/06 08:18:12;;;;;;;;;;;16.30;99.90;;;;;;5053774;28;19908;-55
2023/10/06 08:20:40;;;;;;;;;;;16.40;99.90;;;;;;5055931;28;19912;-55
2023/10/06 08:23:07;;;;;;;;;;;16.30;99.90;;;;;;5045742;28;19909;-55
2023/10/06 08:25:33;;;;;;;;;;;16.50;99.90;;;;;;5039459;28;19916;-55
2023/10/06 08:28:04;;;;;;;;;;;16.60;99.90;;;;;;5051940;28;19909;-55
2023/10/06 08:30:32;;;;;;;;;;;16.80;99.90;;;;;;5054968;28;19927;-55
2023/10/06 08:32:59;;;;;;;;;;;17.00;99.90;;;;;;5055918;28;19932;-55
2023/10/06 08:35:26;;;;;;;;;;;17.20;99.90;;;;;;5045349;28;19909;-55
2023/10/06 08:37:52;;;;;;;;;;;17.10;99.90;;;;;;5047684;28;19913;-55
2023/10/06 08:40:22;;;;;;;;;;;17.40;99.90;;;;;;5051554;28;19916;-55
2023/10/06 08:42:49;;;;;;;;;;;17.40;99.90;;;;;;5049688;28;19916;-55
2023/10/06 08:45:18;;;;;;;;;;;17.40;99.90;;;;;;5056493;28;19916;-55
2023/10/06 08:47:44;;;;;;;;;;;17.50;99.90;;;;;;5055094;28;19940;-55
2023/10/06 08:50:13;;;;;;;;;;;17.70;99.90;;;;;;5056293;28;19909;-55
2023/10/06 08:52:39;;;;;;;;;;;17.80;99.90;;;;;;5056059;28;19919;-55
2023/10/06 08:55:06;;;;;;;;;;;17.90;99.50;;;;;;5055486;28;19947;-55
2023/10/06 08:57:33;;;;;;;;;;;18.20;99.20;;;;;;5056280;28;19924;-55
2023/10/06 08:59:59;;;;;;;;;;;18.30;98.80;;;;;;5072161;28;20018;-55
2023/10/06 09:02:25;;;;;;;;;;;18.50;98.60;;;;;;5076587;28;19944;-55
2023/10/06 09:04:54;;;;;;;;;;;18.50;98.20;;;;;;5053624;28;19909;-55
2023/10/06 09:07:21;;;;;;;;;;;18.70;97.90;;;;;;5051818;28;19916;-55
2023/10/06 09:09:47;;;;;;;;;;;19.00;96.90;;;;;;5052544;28;19909;-55
2023/10/06 09:12:23;;;;;;;;;;;19.00;96.80;;;;;;5036163;28;19916;-55
2023/10/06 09:14:54;;;;;;;;;;;19.30;95.90;;;;;;5035876;28;20015;-55
2023/10/06 09:17:30;;;;;;;;;;;19.50;94.20;;;;;;5056053;28;19908;-55
2023/10/06 09:19:56;;;;;;;;;;;19.70;93.60;;;;;;5039172;28;19913;-55
2023/10/06 09:22:28;;;;;;;;;;;20.00;92.70;;;;;;5054898;28;20358;-55
2023/10/06 09:24:55;;;;;;;;;;;20.30;91.90;;;;;;5055456;28;19955;-55
2023/10/06 09:27:22;;;;;;;;;;;20.70;90.90;;;;;;5056071;28;19974;-55
2023/10/06 09:29:57;;;;;;;;;;;21.10;90.70;;;;;;5054519;28;19913;-55
2023/10/06 09:32:23;;;;;;;;;;;21.70;89.80;;;;;;5049762;28;20007;-55
2023/10/06 09:34:53;;;;;;;;;;;22.00;85.90;;;;;;5055226;28;19944;-55
2023/10/06 09:37:20;;;;;;;;;;;22.60;83.50;;;;;;5045060;28;19912;-55
2023/10/06 09:39:58;;;;;;;;;;;22.90;78.60;;;;;;5051571;28;19920;-55
2023/10/06 09:42:33;;;;;;;;;;;23.20;77.10;;;;;;5053514;28;19913;-55
2023/10/06 09:45:07;;;;;;;;;;;23.60;73.40;;;;;;5054725;28;19909;-55
2023/10/06 09:47:35;;;;;;;;;;;23.90;67.70;;;;;;5049260;28;19909;-56
2023/10/06 09:50:02;;;;;;;;;;;24.30;69.30;;;;;;5052421;28;19908;-55
2023/10/06 09:52:29;;;;;;;;;;;24.40;63.90;;;;;;5037787;28;19984;-55
2023/10/06 09:54:56;;;;;;;;;;;24.80;62.50;;;;;;5055558;28;19908;-55
2023/10/06 09:57:21;;;;;;;;;;;25.80;60.40;;;;;;5047126;28;20342;-56
2023/10/06 09:59:48;;;;;;;;;;;27.40;54.30;;;;;;5055351;28;19920;-56
2023/10/06 10:02:15;;;;;;;;;;;26.90;52.50;;;;;;5054247;28;19908;-56
2023/10/06 10:04:41;;;;;;;;;;;26.90;50.70;;;;;;5055264;28;19956;-56
2023/10/06 10:07:11;;;;;;;;;;;27.10;50.50;;;;;;5052769;28;19920;-56
2023/10/06 10:09:37;;;;;;;;;;;26.60;49.90;;;;;;5059246;28;19916;-56
2023/10/06 10:12:17;;;;;;;;;;;26.80;48.10;;;;;;5058299;28;19916;-56
2023/10/06 10:14:49;;;;;;;;;;;26.30;47.20;;;;;;5054575;28;19921;-56
2023/10/06 10:17:33;;;;;;;;;;;27.00;46.90;;;;;;5049833;28;19909;-56
2023/10/06 10:19:59;;;;;;;;;;;26.50;45.80;;;;;;5059239;28;19913;-56
2023/10/06 10:22:25;;;;;;;;;;;25.80;49.20;;;;;;5057622;28;19908;-56
2023/10/06 10:24:51;;;;;;;;;;;25.90;47.40;;;;;;5047168;28;19909;-56
2023/10/06 10:27:18;;;;;;;;;;;26.50;45.80;;;;;;5059465;28;19909;-56
2023/10/06 10:29:44;;;;;;;;;;;27.00;46.80;;;;;;5056657;28;20000;-56
2023/10/06 10:32:25;;;;;;;;;;;27.40;45.90;;;;;;5057038;28;19964;-56
2023/10/06 10:35:08;;;;;;;;;;;27.80;41.80;;;;;;5056009;28;20026;-56
2023/10/06 10:37:50;;;;;;;;;;;27.80;41.00;;;;;;5055928;28;19916;-56
2023/10/06 10:40:20;;;;;;;;;;;28.90;41.20;;;;;;5057358;28;19913;-56
2023/10/06 10:42:50;;;;;;;;;;;28.50;37.80;;;;;;5058427;28;19905;-56
2023/10/06 10:45:34;;;;;;;;;;;27.90;36.50;;;;;;5057041;28;19909;-56
2023/10/06 10:48:15;;;;;;;;;;;27.30;38.50;;;;;;5056370;28;19916;-56
2023/10/06 10:50:57;;;;;;;;;;;27.90;36.80;;;;;;5054839;28;19916;-56
2023/10/06 10:53:23;;;;;;;;;;;28.60;35.30;;;;;;5040433;28;19931;-56
2023/10/06 10:55:50;;;;;;;;;;;27.90;34.50;;;;;;5058799;28;19995;-57
2023/10/06 10:58:34;;;;;;;;;;;27.70;34.20;;;;;;5061129;28;19958;-56
2023/10/06 11:01:18;;;;;;;;;;;27.70;35.80;;;;;;5075802;28;19919;-57
2023/10/06 11:04:04;;;;;;;;;;;27.60;35.50;;;;;;5056910;28;19926;-56
2023/10/06 11:06:31;;;;;;;;;;;26.20;35.80;;;;;;5049806;28;19912;-57
2023/10/06 11:08:57;;;;;;;;;;;26.10;37.00;;;;;;5050016;28;19916;-56
2023/10/06 11:11:25;;;;;;;;;;;26.70;35.90;;;;;;5056602;28;19994;-56
2023/10/06 11:13:57;;;;;;;;;;;27.40;34.70;;;;;;5057956;28;19940;-56
2023/10/06 11:16:23;;;;;;;;;;;28.00;32.50;;;;;;5045300;28;19988;-57
2023/10/06 11:18:50;;;;;;;;;;;27.60;32.30;;;;;;5057566;28;19956;-56
2023/10/06 11:21:26;;;;;;;;;;;28.00;33.30;;;;;;5048228;28;20366;-56
2023/10/06 11:23:51;;;;;;;;;;;28.60;33.10;;;;;;5049243;28;19999;-56
2023/10/06 11:26:32;;;;;;;;;;;28.90;31.60;;;;;;5050727;28;19947;-56
2023/10/06 11:29:00;;;;;;;;;;;28.90;29.80;;;;;;5056391;28;20449;-56
2023/10/06 11:31:27;;;;;;;;;;;27.50;31.40;;;;;;5057934;28;19916;-56
2023/10/06 11:33:57;;;;;;;;;;;28.20;33.30;;;;;;5054662;28;19909;-56
2023/10/06 11:36:23;;;;;;;;;;;28.60;32.30;;;;;;5055492;28;20365;-56
2023/10/06 11:38:50;;;;;;;;;;;29.00;31.10;;;;;;5057269;28;19909;-56
2023/10/06 11:41:25;;;;;;;;;;;27.10;32.00;;;;;;5058287;28;19909;-56
2023/10/06 11:43:54;;;;;;;;;;;27.70;31.90;;;;;;5056612;28;19908;-56
2023/10/06 11:46:20;;;;;;;;;;;26.50;34.00;;;;;;5056118;28;19905;-58
2023/10/06 11:48:46;;;;;;;;;;;27.30;33.90;;;;;;5056704;28;19908;-58
2023/10/06 11:51:15;;;;;;;;;;;27.50;33.10;;;;;;5057541;28;19936;-58
2023/10/06 11:53:41;;;;;;;;;;;27.50;32.70;;;;;;5057570;28;19909;-58
2023/10/06 11:56:07;;;;;;;;;;;27.00;35.00;;;;;;5057452;28;19997;-58
2023/10/06 11:58:35;;;;;;;;;;;27.40;32.70;;;;;;5062682;28;19909;-58
2023/10/06 12:01:05;;;;;;;;;;;27.70;34.00;;;;;;5077460;28;20374;-58
2023/10/06 12:03:42;;;;;;;;;;;27.60;32.60;;;;;;5077403;28;19932;-58
2023/10/06 12:06:12;;;;;;;;;;;27.70;31.90;;;;;;5075065;28;20376;-58
2023/10/06 12:08:44;;;;;;;;;;;27.70;31.50;;;;;;5056407;28;19920;-58
2023/10/06 12:11:14;;;;;;;;;;;27.60;31.60;;;;;;5039302;28;19920;-58
2023/10/06 12:13:40;;;;;;;;;;;27.70;32.20;;;;;;5056616;28;19927;-58
2023/10/06 12:16:15;;;;;;;;;;;27.80;32.70;;;;;;5055803;28;20358;-57
2023/10/06 12:18:44;;;;;;;;;;;28.30;33.30;;;;;;5056928;28;19935;-58
2023/10/06 12:21:17;;;;;;;;;;;27.90;32.10;;;;;;5037216;28;19948;-58
2023/10/06 12:23:43;;;;;;;;;;;27.80;32.80;;;;;;5055141;28;19917;-58
2023/10/06 12:26:09;;;;;;;;;;;27.90;32.80;;;;;;5057648;28;19950;-58
2023/10/06 12:28:38;;;;;;;;;;;27.60;30.40;;;;;;5056623;28;19943;-58
2023/10/06 12:31:05;;;;;;;;;;;27.60;31.80;;;;;;5057045;28;19912;-58
2023/10/06 12:33:32;;;;;;;;;;;28.10;31.60;;;;;;5057028;28;19912;-58
2023/10/06 12:35:58;;;;;;;;;;;26.90;32.80;;;;;;5057155;28;20455;-58
2023/10/06 12:38:26;;;;;;;;;;;27.00;32.20;;;;;;5057100;28;19909;-58
2023/10/06 12:40:53;;;;;;;;;;;26.90;33.30;;;;;;5057207;28;19920;-58
2023/10/06 12:43:19;;;;;;;;;;;27.20;32.50;;;;;;5057418;28;19909;-58
2023/10/06 12:45:45;;;;;;;;;;;27.20;31.00;;;;;;5057179;28;19905;-58
2023/10/06 12:48:11;;;;;;;;;;;27.30;34.50;;;;;;5057452;28;19995;-58
2023/10/06 12:50:40;;;;;;;;;;;27.50;30.50;;;;;;5057300;28;19956;-58
2023/10/06 12:53:08;;;;;;;;;;;27.50;33.60;;;;;;5056819;28;19992;-58
2023/10/06 12:55:34;;;;;;;;;;;27.80;31.20;;;;;;5056761;28;19908;-58
2023/10/06 12:58:00;;;;;;;;;;;27.80;30.90;;;;;;5056447;28;20350;-58
2023/10/06 13:00:28;;;;;;;;;;;27.20;31.00;;;;;;5056128;28;19959;-58
2023/10/06 13:02:54;;;;;;;;;;;26.90;32.10;;;;;;5056366;28;19940;-58
2023/10/06 13:05:22;;;;;;;;;;;26.70;32.50;;;;;;5056510;28;19912;-58
2023/10/06 13:07:49;;;;;;;;;;;27.00;30.80;;;;;;5056193;28;19970;-58
2023/10/06 13:10:16;;;;;;;;;;;27.20;31.20;;;;;;5056370;28;19916;-58
2023/10/06 13:12:43;;;;;;;;;;;27.30;31.00;;;;;;5055940;28;19919;-58
2023/10/06 13:15:09;;;;;;;;;;;26.90;31.30;;;;;;5056097;28;19909;-58
2023/10/06 13:17:41;;;;;;;;;;;27.00;32.20;;;;;;5056316;28;19954;-58
2023/10/06 13:20:13;;;;;;;;;;;27.20;32.00;;;;;;5056138;28;19958;-58
2023/10/06 13:22:43;;;;;;;;;;;27.00;29.90;;;;;;5055773;28;19913;-58
2023/10/06 13:25:10;;;;;;;;;;;26.90;32.20;;;;;;5056514;28;19908;-58
2023/10/06 13:27:38;;;;;;;;;;;26.90;30.10;;;;;;5056096;28;19951;-59
2023/10/06 13:30:10;;;;;;;;;;;25.80;32.10;;;;;;5056057;28;20035;-58
2023/10/06 13:32:36;;;;;;;;;;;26.00;32.50;;;;;;5056091;28;19916;-58
2023/10/06 13:35:04;;;;;;;;;;;25.80;32.10;;;;;;5056007;28;19921;-58
2023/10/06 13:37:32;;;;;;;;;;;26.00;32.20;;;;;;5055965;28;19909;-58
2023/10/06 13:39:59;;;;;;;;;;;26.30;32.90;;;;;;5055724;28;19964;-58
2023/10/06 13:42:24;;;;;;;;;;;26.20;30.40;;;;;;5055908;28;19909;-58
2023/10/06 13:44:50;;;;;;;;;;;26.00;31.60;;;;;;5055708;28;19909;-58
2023/10/06 13:47:17;;;;;;;;;;;25.90;32.10;;;;;;5055922;28;20286;-58
2023/10/06 13:49:43;;;;;;;;;;;25.90;32.90;;;;;;5037875;28;19999;-58
2023/10/06 13:52:10;;;;;;;;;;;26.40;32.50;;;;;;5055880;28;19948;-58
2023/10/06 13:54:36;;;;;;;;;;;26.50;30.40;;;;;;5055807;28;19909;-58
2023/10/06 13:57:06;;;;;;;;;;;26.20;31.80;;;;;;5055678;28;19916;-58
2023/10/06 13:59:34;;;;;;;;;;;26.40;31.80;;;;;;5068788;28;19916;-58
2023/10/06 14:02:01;;;;;;;;;;;26.50;30.90;;;;;;5075794;28;19908;-58
2023/10/06 14:04:27;;;;;;;;;;;26.30;30.90;;;;;;5075590;28;19927;-58
2023/10/06 14:06:53;;;;;;;;;;;26.10;30.60;;;;;;5075635;28;20284;-58
2023/10/06 14:09:23;;;;;;;;;;;26.10;31.80;;;;;;5075726;28;19908;-58
2023/10/06 14:11:52;;;;;;;;;;;25.60;31.90;;;;;;5075566;28;19916;-58
2023/10/06 14:17:11;;;;;;;;;;;25.70;31.50;;;;;;5075940;28;19908;-58
2023/10/06 14:19:37;;;;;;;;;;;25.70;31.20;;;;;;5075810;28;19913;-58
2023/10/06 14:22:03;;;;;;;;;;;25.60;30.80;;;;;;5075647;28;19912;-58
2023/10/06 14:24:34;;;;;;;;;;;25.50;31.70;;;;;;5075457;28;19947;-58
2023/10/06 14:27:00;;;;;;;;;;;25.50;32.40;;;;;;5075607;28;19932;-58
2023/10/06 14:29:26;;;;;;;;;;;25.10;32.80;;;;;;5075375;28;19904;-58